Terminal Aerodrome Forecast
Issued by NWS

Home | Current Version | Previous Version | Graphics & Text | Print | Product List | Glossary On
Versions: 1 2 3 4 5 6 7 8 9 10 11 12 13 14 15
000
FTUS43 KGRB 261701 AAA
TAFATW
TAF AMD
KATW 261701Z 2617/2712 18009KT P6SM OVC020
      TEMPO 2617/2619 2SM RA BKN025
     FM261900 22009G16KT P6SM OVC040
     FM270300 VRB03KT P6SM RA OVC023
     FM270600 32008KT 6SM RA BR OVC012
     FM270900 30008KT 3SM RA BR OVC009=

USA.gov is the U.S. government's official web portal to all federal, state and local government web resources and services.